Time;durP1;ratioP1;P1;durP2;ratioP2;P2;SDS_P1;SDS_P2;PMS_P1;PMS_P2;Temp;Humidity;BMP_temperature;BMP_pressure;BME280_temperature;BME280_humidity;BME280_pressure;Samples;Min_cycle;Max_cycle;Signal;HPM_P1;HPM_P2
2022/01/13 00:02:17;;;;;;;26.23;10.18;;;;;;;-7.24;98.02;100610.69;4485734;31;20552;-71
2022/01/13 00:04:46;;;;;;;26.00;11.32;;;;;;;-7.34;98.79;100614.81;4485789;31;20471;-71
2022/01/13 00:07:13;;;;;;;34.58;11.45;;;;;;;-7.20;98.86;100621.78;4486121;31;20123;-71
2022/01/13 00:09:41;;;;;;;35.67;12.10;;;;;;;-7.12;98.54;100622.72;4485922;31;20089;-71
2022/01/13 00:12:11;;;;;;;37.85;12.95;;;;;;;-7.03;97.92;100622.00;4485899;31;20145;-71
2022/01/13 00:14:52;;;;;;;40.35;13.98;;;;;;;-7.01;97.60;100618.66;4486071;31;20088;-71
2022/01/13 00:17:30;;;;;;;30.75;14.43;;;;;;;-6.92;97.29;100619.56;4486136;31;20084;-71
2022/01/13 00:20:11;;;;;;;40.53;11.95;;;;;;;-6.83;97.10;100627.31;4485639;31;20185;-71
2022/01/13 00:25:46;;;;;;;26.67;11.68;;;;;;;-6.78;97.10;100631.66;4485802;31;20115;-71
2022/01/13 00:28:19;;;;;;;26.83;9.75;;;;;;;-6.63;96.42;100620.78;4485926;31;20457;-71
2022/01/13 00:30:51;;;;;;;37.15;11.02;;;;;;;-6.63;96.44;100625.88;4485671;31;20502;-71
2022/01/13 00:33:23;;;;;;;29.52;11.98;;;;;;;-6.56;96.44;100615.75;4485779;32;20076;-71
2022/01/13 00:35:57;;;;;;;20.40;9.40;;;;;;;-6.48;96.40;100617.53;4485737;31;20136;-71
2022/01/13 00:38:25;;;;;;;;;;;;;;;-6.41;96.12;100608.25;4485747;32;20194;-71
2022/01/13 00:40:53;;;;;;;28.62;9.05;;;;;;;-6.44;96.54;100613.31;4485743;31;20073;-71
2022/01/13 00:43:20;;;;;;;33.13;12.10;;;;;;;-6.40;96.47;100611.62;4485584;31;20116;-71
2022/01/13 00:45:49;;;;;;;33.00;10.07;;;;;;;-6.27;96.47;100616.87;4485426;31;20378;-71
2022/01/13 00:48:16;;;;;;;28.85;10.20;;;;;;;-6.26;96.39;100626.22;4485680;31;20589;-71
2022/01/13 00:50:43;;;;;;;32.50;12.77;;;;;;;-6.16;95.85;100626.31;4485293;31;20109;-71
2022/01/13 00:53:11;;;;;;;34.28;14.07;;;;;;;-6.12;95.59;100621.25;4485392;31;20498;-71
2022/01/13 00:55:48;;;;;;;31.48;12.98;;;;;;;-6.17;95.93;100624.63;4485418;31;20569;-71
2022/01/13 00:58:16;;;;;;;34.67;11.98;;;;;;;-6.13;95.91;100626.34;4485356;31;20422;-71
2022/01/13 01:00:44;;;;;;;25.30;11.70;;;;;;;-6.02;95.28;100642.59;4485395;31;20101;-71
2022/01/13 01:03:12;;;;;;;25.92;10.15;;;;;;;-6.01;95.19;100640.91;4485136;31;20495;-71
2022/01/13 01:05:40;;;;;;;43.95;12.23;;;;;;;-5.94;95.04;100648.59;4485373;31;20104;-71
2022/01/13 01:08:09;;;;;;;37.03;12.65;;;;;;;-5.99;94.80;100644.34;4485671;31;20551;-72
2022/01/13 01:10:38;;;;;;;29.02;10.27;;;;;;;-5.99;95.23;100640.06;4485388;31;20381;-71
2022/01/13 01:13:14;;;;;;;31.80;11.50;;;;;;;-5.96;95.51;100642.62;4485473;31;20143;-71
2022/01/13 01:15:46;;;;;;;30.40;11.73;;;;;;;-5.88;95.19;100638.44;4485273;31;20092;-71
2022/01/13 01:21:36;;;;;;;14.07;6.18;;;;;;;-5.75;94.41;100639.38;4485193;31;20088;-71
2022/01/13 01:23:57;;;;;;;19.58;8.15;;;;;;;-5.76;94.42;100642.78;4484583;31;20415;-71
2022/01/13 01:29:11;;;;;;;22.40;9.68;;;;;;;-5.77;94.75;100652.97;4485086;31;20088;-71
2022/01/13 01:31:40;;;;;;;34.90;11.15;;;;;;;-5.81;94.63;100646.13;4485267;31;20114;-71
2022/01/13 01:36:54;;;;;;;38.80;13.10;;;;;;;-5.82;94.94;100652.09;4485283;31;20123;-71
2022/01/13 01:39:23;;;;;;;39.97;13.45;;;;;;;-5.79;94.58;100658.06;4485145;31;20553;-71
2022/01/13 01:41:52;;;;;;;35.95;11.38;;;;;;;-5.82;94.79;100645.28;4485176;31;20087;-71
2022/01/13 01:44:31;;;;;;;30.70;11.88;;;;;;;-5.77;94.78;100637.66;4485183;31;20120;-71
2022/01/13 01:47:00;;;;;;;35.20;11.38;;;;;;;-5.85;94.92;100652.06;4485156;31;20132;-71
2022/01/13 01:49:28;;;;;;;30.95;11.32;;;;;;;-5.79;94.80;100647.84;4484217;31;20092;-71
2022/01/13 01:51:57;;;;;;;39.67;14.68;;;;;;;-5.83;94.75;100645.28;4484869;31;20092;-71
2022/01/13 01:54:26;;;;;;;50.15;15.43;;;;;;;-5.91;95.09;100638.41;4485003;31;20134;-71
2022/01/13 01:56:53;;;;;;;38.97;14.85;;;;;;;-5.85;95.15;100639.31;4484886;31;20414;-71
2022/01/13 01:59:25;;;;;;;36.63;13.50;;;;;;;-5.88;94.96;100646.09;4485220;31;20084;-71
2022/01/13 02:01:52;;;;;;;38.42;13.82;;;;;;;-6.05;95.39;100647.69;4484908;31;20474;-72
2022/01/13 02:04:21;;;;;;;34.60;12.55;;;;;;;-6.04;95.53;100654.50;4484956;31;20104;-71
2022/01/13 02:06:48;;;;;;;25.55;11.12;;;;;;;-6.02;95.36;100654.53;4485100;31;20088;-71
2022/01/13 02:09:17;;;;;;;42.33;13.30;;;;;;;-6.01;95.16;100654.53;4484987;31;20466;-71
2022/01/13 02:11:48;;;;;;;41.90;14.07;;;;;;;-6.12;95.76;100648.47;4484882;31;20486;-71
2022/01/13 02:14:48;;;;;;;41.13;13.65;;;;;;;-6.03;95.79;100647.69;4484975;31;20089;-71
2022/01/13 02:17:14;;;;;;;35.17;14.13;;;;;;;-6.02;95.77;100642.59;4484759;31;20616;-71
2022/01/13 02:19:46;;;;;;;29.27;11.38;;;;;;;-6.03;95.88;100642.59;4484728;31;20133;-71
2022/01/13 02:22:14;;;;;;;39.42;12.05;;;;;;;-5.99;96.45;100641.78;4469096;32;20535;-71
2022/01/13 02:24:41;;;;;;;37.28;13.90;;;;;;;-6.03;96.17;100643.44;4469068;32;20111;-71
2022/01/13 02:27:08;;;;;;;40.75;12.57;;;;;;;-6.03;96.61;100643.44;4468968;32;20093;-71
2022/01/13 02:29:36;;;;;;;36.30;13.55;;;;;;;-6.03;96.51;100646.00;4469100;32;20493;-71
2022/01/13 02:32:04;;;;;;;29.12;11.80;;;;;;;-6.06;96.50;100643.41;4469097;32;20100;-71
2022/01/13 02:34:32;;;;;;;38.03;12.90;;;;;;;-6.10;97.02;100644.22;4469175;32;20100;-71
2022/01/13 02:37:00;;;;;;;38.58;12.82;;;;;;;-6.04;96.65;100643.44;4469293;32;20108;-71
2022/01/13 02:39:27;;;;;;;43.58;13.48;;;;;;;-6.13;96.68;100646.75;4468943;32;20088;-71
2022/01/13 02:41:56;;;;;;;35.17;13.32;;;;;;;-5.98;96.51;100652.00;4468876;32;20118;-71
2022/01/13 02:44:24;;;;;;;37.47;13.10;;;;;;;-5.90;95.71;100657.97;4468998;32;20109;-71
2022/01/13 02:47:09;;;;;;;24.83;11.10;;;;;;;-5.85;95.41;100647.81;4468828;32;20505;-71
2022/01/13 02:49:57;;;;;;;33.45;12.93;;;;;;;-5.78;95.71;100647.03;4468932;32;20569;-71
2022/01/13 02:52:24;;;;;;;27.83;11.80;;;;;;;-5.75;95.44;100634.28;4468380;32;20491;-71
2022/01/13 02:54:51;;;;;;;38.42;13.10;;;;;;;-5.64;95.30;100630.97;4468828;32;20101;-72
2022/01/13 02:57:22;;;;;;;41.55;13.40;;;;;;;-5.67;95.15;100629.22;4468678;32;20089;-72
2022/01/13 02:59:49;;;;;;;37.42;13.48;;;;;;;-5.79;95.45;100629.16;4468604;32;20108;-71
2022/01/13 03:02:16;;;;;;;32.38;12.50;;;;;;;-5.83;95.72;100619.75;4485031;32;20096;-71
2022/01/13 03:04:46;;;;;;;38.83;13.60;;;;;;;-5.69;95.65;100623.28;4486238;31;20111;-71
2022/01/13 03:07:13;;;;;;;36.38;12.37;;;;;;;-5.71;95.42;100625.81;4486342;31;20123;-71
2022/01/13 03:09:43;;;;;;;36.65;15.18;;;;;;;-5.49;95.03;100636.16;4486177;31;20149;-71
2022/01/13 03:12:12;;;;;;;26.87;11.20;;;;;;;-5.57;94.96;100648.88;4486235;31;20092;-71
2022/01/13 03:14:39;;;;;;;39.47;11.60;;;;;;;-5.62;95.42;100645.44;4486216;31;20096;-71
2022/01/13 03:17:07;;;;;;;37.90;11.90;;;;;;;-5.63;95.97;100646.28;4486337;31;20109;-71
2022/01/13 03:19:34;;;;;;;34.60;12.73;;;;;;;-5.39;95.36;100648.16;4486043;31;20096;-71
2022/01/13 03:22:02;;;;;;;33.83;11.98;;;;;;;-5.28;94.76;100655.88;4485976;31;20122;-71
2022/01/13 03:24:31;;;;;;;33.55;11.88;;;;;;;-5.29;94.80;100664.37;4486064;31;20100;-71
2022/01/13 03:27:02;;;;;;;31.40;12.32;;;;;;;-5.21;94.91;100666.97;4486097;32;20459;-71
2022/01/13 03:29:32;;;;;;;36.10;13.30;;;;;;;-5.19;95.16;100671.25;4486164;31;20085;-71
2022/01/13 03:31:59;;;;;;;32.83;11.90;;;;;;;-5.11;94.79;100671.31;4486125;31;20127;-71
2022/01/13 03:34:26;;;;;;;36.90;12.77;;;;;;;-5.09;95.13;100672.16;4486084;31;20123;-71
2022/01/13 03:36:53;;;;;;;37.00;13.02;;;;;;;-4.98;94.79;100667.13;4486132;31;20101;-71
2022/01/13 03:39:21;;;;;;;39.75;12.98;;;;;;;-4.97;94.62;100668.81;4486313;31;20101;-71
2022/01/13 03:41:48;;;;;;;30.27;11.40;;;;;;;-5.12;95.58;100666.19;4486027;31;20093;-71
2022/01/13 03:44:27;;;;;;;35.35;11.77;;;;;;;-5.03;95.64;100661.13;4485853;31;20632;-71
2022/01/13 03:47:03;;;;;;;38.70;13.55;;;;;;;-5.02;95.65;100665.38;4486044;32;20142;-71
2022/01/13 03:49:32;;;;;;;38.22;12.48;;;;;;;-4.92;95.28;100656.91;4485998;31;20115;-71
2022/01/13 03:52:03;;;;;;;38.47;13.10;;;;;;;-4.96;95.46;100657.75;4485754;32;20133;-71
2022/01/13 03:54:36;;;;;;;34.28;12.35;;;;;;;-4.83;95.24;100649.28;4485942;31;20472;-71
2022/01/13 03:57:12;;;;;;;37.65;13.10;;;;;;;-4.84;94.93;100650.13;4485966;32;20136;-71
2022/01/13 03:59:46;;;;;;;32.50;12.25;;;;;;;-4.90;95.12;100651.81;4485790;31;20107;-71
2022/01/13 04:02:14;;;;;;;28.27;11.70;;;;;;;-4.95;95.58;100669.69;4486151;31;20458;-71
2022/01/13 04:04:47;;;;;;;39.25;14.60;;;;;;;-4.79;95.40;100656.97;4485879;31;20142;-71
2022/01/13 04:07:18;;;;;;;41.80;13.40;;;;;;;-4.96;95.62;100657.75;4486006;32;20812;-71
2022/01/13 04:09:46;;;;;;;45.40;14.75;;;;;;;-4.97;95.71;100667.97;4486051;32;20166;-71
2022/01/13 04:12:14;;;;;;;42.08;13.85;;;;;;;-5.11;96.25;100647.47;4485544;31;20085;-71
2022/01/13 04:14:59;;;;;;;38.92;12.93;;;;;;;-5.05;95.06;100657.72;4485920;31;20201;-71
2022/01/13 04:17:27;;;;;;;41.83;13.57;;;;;;;-5.02;94.37;100657.72;4485594;31;20080;-71
2022/01/13 04:19:54;;;;;;;41.17;14.55;;;;;;;-5.10;94.51;100661.91;4485788;31;20159;-71
2022/01/13 04:22:24;;;;;;;41.83;13.52;;;;;;;-5.02;95.50;100652.59;4485628;31;20417;-71
2022/01/13 04:24:52;;;;;;;46.37;14.68;;;;;;;-5.10;96.24;100644.03;4485947;31;20084;-71
2022/01/13 04:27:26;;;;;;;42.22;13.85;;;;;;;-5.11;96.44;100621.91;4484287;32;20156;-71
2022/01/13 04:30:33;;;;;;;;;;;;;;;-5.17;97.40;100618.44;4486358;32;20081;-71
2022/01/13 04:32:43;;;;;;;31.95;10.82;;;;;;;-5.13;97.20;100611.69;4485428;32;19999;-71
2022/01/13 04:35:11;;;;;;;40.30;12.77;;;;;;;-5.19;97.57;100622.72;4485723;31;20486;-71
2022/01/13 04:37:38;;;;;;;35.55;11.85;;;;;;;-5.31;97.74;100621.78;4485577;31;20080;-71
2022/01/13 04:40:09;;;;;;;38.25;13.52;;;;;;;-5.30;97.84;100614.13;4485672;32;20139;-71
2022/01/13 04:42:41;;;;;;;35.75;13.80;;;;;;;-5.48;95.85;100616.56;4485625;32;20076;-71
2022/01/13 04:45:09;;;;;;;38.15;13.98;;;;;;;-5.72;94.34;100624.09;4485748;31;20089;-71
2022/01/13 04:47:36;;;;;;;37.33;13.90;;;;;;;-5.81;95.04;100608.72;4485511;31;20414;-71
2022/01/13 04:50:04;;;;;;;32.35;13.85;;;;;;;-5.92;95.06;100612.88;4485353;31;20088;-71
2022/01/13 04:52:31;;;;;;;36.47;13.62;;;;;;;-5.94;95.51;100610.31;4485263;31;20161;-71
2022/01/13 04:55:08;;;;;;;40.03;13.43;;;;;;;-6.14;95.63;100617.84;4485305;31;20176;-71
2022/01/13 04:57:35;;;;;;;38.25;13.70;;;;;;;-6.12;96.95;100623.78;4485712;31;20092;-71
2022/01/13 05:00:05;;;;;;;41.90;14.57;;;;;;;-6.16;97.61;100621.22;4485604;31;20564;-71
2022/01/13 05:02:35;;;;;;;40.92;14.68;;;;;;;-6.01;97.83;100634.13;4485045;31;20077;-71
2022/01/13 05:05:04;;;;;;;46.28;15.73;;;;;;;-6.05;95.56;100639.19;4485457;32;20165;-71
2022/01/13 05:07:32;;;;;;;40.25;14.13;;;;;;;-6.15;95.60;100635.69;4485256;31;20089;-71
2022/01/13 05:09:59;;;;;;;41.78;13.98;;;;;;;-6.32;95.16;100633.81;4485614;31;20089;-71
2022/01/13 05:12:34;;;;;;;43.05;16.08;;;;;;;-6.53;96.72;100651.47;4485283;31;20149;-71
2022/01/13 05:15:04;;;;;;;40.53;13.88;;;;;;;-6.57;97.19;100649.72;4485518;31;20107;-71
2022/01/13 05:21:19;;;;;;;46.45;15.18;;;;;;;-6.56;96.96;100649.72;4467174;32;20124;-71
2022/01/13 05:23:17;;;;;;;34.65;12.50;;;;;;;-6.51;97.33;100649.78;4459270;32;20783;-71
2022/01/13 05:25:44;;;;;;;39.63;14.13;;;;;;;-6.28;97.78;100661.06;4453673;32;20147;-71
2022/01/13 05:28:12;;;;;;;45.17;15.43;;;;;;;-6.12;97.04;100667.16;4465632;32;20116;-72
2022/01/13 05:30:40;;;;;;;30.77;12.45;;;;;;;-6.09;96.96;100674.00;4466363;32;20147;-73
2022/01/13 05:33:07;;;;;;;33.75;13.07;;;;;;;-5.97;98.39;100669.00;4465628;32;20096;-72
2022/01/13 05:35:36;;;;;;;34.53;13.15;;;;;;;-5.73;99.95;100685.34;4466121;32;20139;-72
2022/01/13 05:38:05;;;;;;;44.40;15.90;;;;;;;-5.53;100.00;100680.38;4466731;32;20167;-72
2022/01/13 05:40:33;;;;;;;33.90;13.00;;;;;;;-5.41;100.00;100677.06;4467036;32;20482;-71
2022/01/13 05:43:01;;;;;;;35.47;13.62;;;;;;;-5.36;99.94;100681.37;4466140;32;20101;-72
2022/01/13 05:45:29;;;;;;;33.03;11.60;;;;;;;-5.25;99.16;100678.88;4466391;32;20132;-72
2022/01/13 05:47:58;;;;;;;27.67;12.52;;;;;;;-5.18;98.02;100670.41;4466275;32;20419;-72
2022/01/13 05:50:26;;;;;;;35.47;13.95;;;;;;;-5.28;98.23;100655.00;4466846;32;20095;-72
2022/01/13 05:52:53;;;;;;;38.90;13.13;;;;;;;-5.36;97.70;100665.19;4466552;32;20120;-72
2022/01/13 05:55:20;;;;;;;39.58;14.25;;;;;;;-5.45;97.03;100675.34;4455357;32;20113;-72
2022/01/13 05:57:48;;;;;;;35.25;12.80;;;;;;;-5.54;96.87;100669.34;4478454;32;20549;-72
2022/01/13 06:00:18;;;;;;;37.47;14.00;;;;;;;-5.61;97.37;100661.63;4484904;32;20092;-72
2022/01/13 06:02:46;;;;;;;39.25;14.15;;;;;;;-5.62;97.34;100655.62;4471077;32;20159;-72
2022/01/13 06:05:14;;;;;;;33.88;14.55;;;;;;;-5.54;97.14;100671.00;4479628;31;20096;-73
2022/01/13 06:07:41;;;;;;;34.92;14.75;;;;;;;-5.63;96.98;100673.50;4479817;32;20108;-72
2022/01/13 06:10:13;;;;;;;39.38;14.95;;;;;;;-5.62;97.39;100665.00;4472416;32;20155;-71
2022/01/13 06:12:40;;;;;;;42.85;14.65;;;;;;;-5.62;96.97;100668.41;4470704;32;20084;-72
2022/01/13 06:15:10;;;;;;;43.22;13.07;;;;;;;-5.61;96.96;100659.91;4479592;32;20165;-70
2022/01/13 06:17:41;;;;;;;37.47;13.10;;;;;;;-5.68;97.54;100672.62;4476316;32;20084;-72
2022/01/13 06:20:11;;;;;;;36.25;12.43;;;;;;;-5.63;97.59;100664.16;4477189;31;20122;-71
2022/01/13 06:22:40;;;;;;;36.63;11.77;;;;;;;-5.73;97.48;100664.94;4475887;32;20118;-72
2022/01/13 06:25:09;;;;;;;38.25;15.00;;;;;;;-5.72;97.09;100666.66;4479030;32;20123;-72
2022/01/13 06:27:36;;;;;;;37.97;13.85;;;;;;;-5.85;97.21;100641.88;4480957;31;20092;-72
2022/01/13 06:30:07;;;;;;;42.30;13.73;;;;;;;-5.85;97.03;100644.41;4475379;32;20119;-72
2022/01/13 06:32:34;;;;;;;45.10;15.02;;;;;;;-5.88;97.12;100645.22;4469416;32;20109;-72
2022/01/13 06:35:02;;;;;;;34.15;12.55;;;;;;;-6.10;96.62;100649.31;4477958;31;20124;-71
2022/01/13 06:37:30;;;;;;;35.38;14.60;;;;;;;-6.13;96.51;100656.94;4478946;32;20551;-71
2022/01/13 06:39:57;;;;;;;43.03;16.00;;;;;;;-6.26;98.06;100664.47;4481727;31;20886;-72
2022/01/13 06:42:24;;;;;;;37.03;13.70;;;;;;;-6.23;98.24;100667.94;4480831;31;20128;-71
2022/01/13 06:44:55;;;;;;;42.05;13.38;;;;;;;-6.23;98.96;100667.94;4483218;31;20175;-71
2022/01/13 06:47:26;;;;;;;34.25;11.90;;;;;;;-6.11;100.00;100663.78;4479511;32;20119;-72
2022/01/13 06:49:54;;;;;;;39.60;13.70;;;;;;;-5.95;100.00;100661.31;4479899;32;20118;-72
2022/01/13 06:52:21;;;;;;;38.67;13.65;;;;;;;-5.84;100.00;100667.41;4481698;32;20489;-71
2022/01/13 06:54:48;;;;;;;36.45;14.77;;;;;;;-5.72;100.00;100659.00;4479596;32;20116;-72
2022/01/13 06:57:16;;;;;;;40.40;15.25;;;;;;;-5.61;100.00;100661.63;4482716;31;20167;-73
2022/01/13 06:59:43;;;;;;;38.35;14.27;;;;;;;-5.59;100.00;100676.09;4481401;31;20088;-73
2022/01/13 07:02:12;;;;;;;41.35;13.62;;;;;;;-5.55;100.00;100671.88;4479844;32;20115;-74
2022/01/13 07:04:40;;;;;;;46.40;15.05;;;;;;;-5.54;100.00;100671.00;4478130;32;20239;-72
2022/01/13 07:07:07;;;;;;;42.40;15.18;;;;;;;-5.49;100.00;100673.63;4482811;32;20088;-73
2022/01/13 07:09:34;;;;;;;40.47;14.20;;;;;;;-5.38;99.84;100665.16;4481477;31;20127;-74
2022/01/13 07:12:02;;;;;;;39.85;15.48;;;;;;;-5.36;99.11;100670.28;4474893;32;20504;-74
2022/01/13 07:14:29;;;;;;;39.33;14.60;;;;;;;-5.27;98.59;100672.06;4473768;31;20123;-74
2022/01/13 07:16:56;;;;;;;45.70;15.00;;;;;;;-5.28;98.47;100675.44;4472313;31;20120;-73
2022/01/13 07:19:23;;;;;;;45.83;16.40;;;;;;;-5.28;98.16;100666.09;4480698;32;20167;-72
2022/01/13 07:21:51;;;;;;;42.78;14.87;;;;;;;-5.21;97.79;100672.09;4482813;31;20115;-74
2022/01/13 07:24:18;;;;;;;53.80;16.17;;;;;;;-5.13;97.01;100672.13;4476334;31;20117;-72
2022/01/13 07:26:45;;;;;;;43.60;14.68;;;;;;;-5.12;97.01;100678.97;4468089;32;20527;-71
2022/01/13 07:29:12;;;;;;;48.53;16.20;;;;;;;-5.09;97.29;100682.38;4470938;32;20205;-72
2022/01/13 07:31:39;;;;;;;51.20;16.62;;;;;;;-5.06;97.15;100684.94;4478093;31;20543;-72
2022/01/13 07:34:07;;;;;;;51.15;16.00;;;;;;;-5.05;96.94;100685.81;4477490;31;20104;-72
2022/01/13 07:36:36;;;;;;;47.70;15.13;;;;;;;-5.20;97.52;100684.87;4471853;32;20101;-72
2022/01/13 07:39:05;;;;;;;43.97;16.75;;;;;;;-5.23;98.49;100696.78;4472939;31;20115;-72
2022/01/13 07:41:33;;;;;;;38.80;15.95;;;;;;;-5.11;98.20;100696.00;4478547;32;20152;-71
2022/01/13 07:44:01;;;;;;;45.45;15.93;;;;;;;-4.97;97.94;100696.09;4481605;32;20470;-73
2022/01/13 07:46:28;;;;;;;25.45;10.77;;;;;;;-5.01;98.75;100698.63;4473500;31;20800;-72
2022/01/13 07:48:55;;;;;;;38.60;14.80;;;;;;;-4.94;99.06;100704.59;4476212;32;20112;-72
2022/01/13 07:51:22;;;;;;;49.22;16.35;;;;;;;-4.96;99.37;100696.09;4469892;32;20076;-72
2022/01/13 07:53:49;;;;;;;48.30;16.80;;;;;;;-4.95;99.76;100710.59;4469706;32;20104;-72
2022/01/13 07:56:17;;;;;;;40.10;14.98;;;;;;;-4.82;99.38;100708.94;4479053;32;20116;-72
2022/01/13 07:58:46;;;;;;;40.35;14.87;;;;;;;-4.72;98.96;100707.28;4482267;31;20457;-73
2022/01/13 08:01:13;;;;;;;39.92;14.38;;;;;;;-4.64;98.98;100715.84;4473976;32;20080;-73
2022/01/13 08:03:41;;;;;;;44.55;13.80;;;;;;;-4.55;98.48;100715.88;4485405;31;20156;-73
2022/01/13 08:06:09;;;;;;;46.05;15.93;;;;;;;-4.47;98.28;100711.66;4476989;31;20138;-72
2022/01/13 08:08:36;;;;;;;44.08;15.32;;;;;;;-4.35;97.54;100715.94;4470914;32;20127;-72
2022/01/13 08:11:04;;;;;;;40.80;13.85;;;;;;;-4.37;98.15;100716.81;4469504;32;20273;-72
2022/01/13 08:13:32;;;;;;;41.72;15.13;;;;;;;-4.23;97.94;100715.13;4485767;31;20111;-72
2022/01/13 08:16:02;;;;;;;47.47;17.33;;;;;;;-4.15;97.42;100713.47;4472962;31;20147;-73
2022/01/13 08:21:15;;;;;;;53.20;16.73;;;;;;;-3.80;96.22;100710.09;4477940;31;20509;-72
2022/01/13 08:23:43;;;;;;;48.22;16.08;;;;;;;-3.72;95.12;100714.34;4474584;31;20145;-71
2022/01/13 08:26:10;;;;;;;41.78;15.55;;;;;;;-3.71;95.93;100718.63;4475090;31;20101;-71
2022/01/13 08:28:37;;;;;;;41.90;16.30;;;;;;;-3.60;95.68;100722.91;4478230;32;20469;-71
2022/01/13 08:31:05;;;;;;;44.30;16.50;;;;;;;-3.38;95.54;100710.09;4474788;32;20122;-71
2022/01/13 08:33:32;;;;;;;42.50;15.85;;;;;;;-3.20;95.35;100716.91;4481910;31;20101;-72
2022/01/13 08:36:02;;;;;;;39.38;14.27;;;;;;;-3.05;95.72;100722.00;4478560;32;20675;-72
2022/01/13 08:38:29;;;;;;;43.58;17.40;;;;;;;-2.93;96.65;100716.00;4472815;31;20100;-72
2022/01/13 08:40:58;;;;;;;33.65;13.90;;;;;;;-2.67;96.97;100717.63;4474449;31;20214;-73
2022/01/13 08:43:27;;;;;;;46.78;16.87;;;;;;;-2.41;96.37;100712.38;4482394;31;20130;-73
2022/01/13 08:45:55;;;;;;;37.90;15.40;;;;;;;-2.24;96.24;100719.16;4477583;32;20164;-73
2022/01/13 08:48:23;;;;;;;42.10;16.25;;;;;;;-2.19;96.19;100707.16;4481810;32;20562;-72
2022/01/13 08:50:50;;;;;;;52.47;17.77;;;;;;;-2.13;96.28;100709.69;4483752;31;20123;-72
2022/01/13 08:53:18;;;;;;;47.55;17.02;;;;;;;-1.86;95.67;100707.78;4481624;32;20161;-73
2022/01/13 08:55:46;;;;;;;35.20;12.80;;;;;;;-1.79;95.25;100706.88;4476375;32;20128;-72
2022/01/13 08:58:13;;;;;;;46.37;14.60;;;;;;;-1.64;94.80;100711.91;4480271;31;20088;-73
2022/01/13 09:00:42;;;;;;;44.22;15.15;;;;;;;-1.72;94.93;100703.41;4482242;31;20461;-72
2022/01/13 09:03:10;;;;;;;47.28;17.05;;;;;;;-1.65;95.31;100709.34;4478321;31;20101;-73
2022/01/13 09:05:38;;;;;;;45.08;16.85;;;;;;;-1.55;95.24;100705.00;4483382;32;20779;-73
2022/01/13 09:08:07;;;;;;;42.15;16.83;;;;;;;-1.34;94.69;100699.66;4480162;32;20131;-73
2022/01/13 09:10:34;;;;;;;47.15;15.70;;;;;;;-1.25;94.40;100709.84;4470695;31;20087;-72
2022/01/13 09:13:02;;;;;;;39.20;14.55;;;;;;;-1.23;94.55;100703.88;4477137;31;20454;-73
2022/01/13 09:15:34;;;;;;;43.20;15.75;;;;;;;-1.19;94.69;100708.97;4481254;32;20092;-72
2022/01/13 09:18:09;;;;;;;29.70;12.43;;;;;;;-0.98;94.28;100697.59;4478297;31;20115;-73
2022/01/13 09:20:40;;;;;;;25.73;11.27;;;;;;;-0.87;93.70;100699.22;4479132;31;20116;-72
2022/01/13 09:23:08;;;;;;;29.77;12.88;;;;;;;-0.81;93.47;100704.28;4477917;32;20097;-73
2022/01/13 09:25:35;;;;;;;26.02;11.00;;;;;;;-0.63;93.43;100700.66;4475140;32;20126;-72
2022/01/13 09:28:06;;;;;;;30.67;11.50;;;;;;;-0.49;93.24;100705.63;4477389;31;20184;-73
2022/01/13 09:30:33;;;;;;;27.95;10.43;;;;;;;-0.36;92.40;100702.03;4481314;31;20088;-71
2022/01/13 09:33:00;;;;;;;38.17;12.37;;;;;;;-0.34;92.26;100700.28;4482011;31;20134;-71
2022/01/13 09:35:28;;;;;;;31.98;12.37;;;;;;;-0.28;92.25;100704.50;4484823;31;20092;-72
2022/01/13 09:37:56;;;;;;;25.35;11.40;;;;;;;-0.27;92.85;100709.62;4476314;32;20584;-72
2022/01/13 09:40:23;;;;;;;34.90;12.85;;;;;;;-0.18;92.98;100711.22;4484107;31;20126;-72
2022/01/13 09:42:52;;;;;;;35.58;13.95;;;;;;;0.04;92.50;100705.78;4482292;31;20124;-72
2022/01/13 09:45:19;;;;;;;35.42;12.85;;;;;;;0.26;91.65;100716.59;4484413;31;20127;-72
2022/01/13 09:47:47;;;;;;;36.17;13.15;;;;;;;0.29;90.48;100707.09;4468837;31;196525;-72
2022/01/13 09:50:18;;;;;;;31.60;11.88;;;;;;;0.17;89.98;100708.13;4470487;32;20092;-72
2022/01/13 09:52:46;;;;;;;23.20;9.23;;;;;;;0.08;90.41;100708.28;4474059;32;20096;-72
2022/01/13 09:55:14;;;;;;;26.52;11.50;;;;;;;0.14;90.03;100703.03;4472196;31;20088;-72
2022/01/13 09:57:52;;;;;;;27.50;10.40;;;;;;;0.14;90.02;100705.59;4477140;32;20112;-72
2022/01/13 10:00:21;;;;;;;33.17;13.57;;;;;;;0.11;90.35;100697.09;4476960;32;20096;-72
2022/01/13 10:02:49;;;;;;;26.10;10.75;;;;;;;0.27;90.21;100693.41;4473028;32;20410;-72
2022/01/13 10:05:20;;;;;;;36.67;13.70;;;;;;;0.28;88.89;100689.09;4473535;31;20503;-72
2022/01/13 10:07:51;;;;;;;30.52;12.65;;;;;;;0.31;89.42;100682.13;4476789;32;20438;-72
2022/01/13 10:10:25;;;;;;;29.63;12.43;;;;;;;0.44;88.67;100687.97;4473676;32;20175;-72
2022/01/13 10:13:10;;;;;;;24.48;10.73;;;;;;;0.37;88.60;100678.63;4473723;32;20115;-72
2022/01/13 10:18:42;;;;;;;15.63;8.50;;;;;;;0.28;88.20;100683.94;4475691;32;20333;-72
2022/01/13 10:21:18;;;;;;;30.12;11.73;;;;;;;0.36;88.38;100671.75;4477620;32;20158;-72
2022/01/13 10:24:09;;;;;;;17.10;8.77;;;;;;;0.56;87.34;100667.97;4475769;31;20123;-72
2022/01/13 10:26:39;;;;;;;29.33;11.63;;;;;;;0.63;86.80;100659.28;4479067;31;20433;-72
2022/01/13 10:29:08;;;;;;;29.45;11.60;;;;;;;0.56;86.80;100667.97;4475019;31;20108;-72
2022/01/13 10:31:49;;;;;;;20.10;9.45;;;;;;;0.67;86.79;100676.41;4474986;31;20084;-72
2022/01/13 10:34:28;;;;;;;27.60;10.02;;;;;;;0.80;86.06;100669.28;4477431;31;20157;-72
2022/01/13 10:37:05;;;;;;;32.83;11.63;;;;;;;0.76;85.39;100668.50;4479686;31;20096;-73
2022/01/13 10:39:51;;;;;;;32.25;12.23;;;;;;;0.77;85.69;100669.34;4478966;31;20160;-72
2022/01/13 10:45:20;;;;;;;32.45;11.77;;;;;;;0.53;85.87;100638.81;4475328;31;20149;-72
2022/01/13 10:47:52;;;;;;;35.53;12.50;;;;;;;0.51;86.83;100635.38;4478721;32;20135;-71
2022/01/13 10:50:21;;;;;;;27.70;10.73;;;;;;;0.56;86.34;100643.06;4471870;32;20513;-71
2022/01/13 10:52:51;;;;;;;28.65;12.98;;;;;;;0.50;86.35;100640.56;4473873;31;20114;-71
2022/01/13 10:55:21;;;;;;;32.25;12.88;;;;;;;0.55;86.48;100635.38;4484659;31;20157;-70
2022/01/13 10:58:09;;;;;;;27.15;11.95;;;;;;;0.49;86.88;100644.88;4470185;31;20100;-71
2022/01/13 11:00:36;;;;;;;29.87;12.90;;;;;;;0.40;86.83;100645.06;4476623;32;20135;-71
2022/01/13 11:03:19;;;;;;;33.17;13.07;;;;;;;0.37;87.12;100637.37;4474495;32;20171;-71
2022/01/13 11:06:06;;;;;;;30.30;13.02;;;;;;;0.53;86.55;100654.28;4486549;31;20116;-71
2022/01/13 11:08:42;;;;;;;33.85;13.88;;;;;;;0.25;87.48;100647.88;4476479;32;20093;-72
2022/01/13 11:11:20;;;;;;;40.30;16.17;;;;;;;0.44;87.08;100641.56;4481823;32;20152;-71
2022/01/13 11:13:56;;;;;;;35.78;14.13;;;;;;;0.58;86.41;100654.19;4477674;31;20092;-72
2022/01/13 11:16:24;;;;;;;34.60;15.13;;;;;;;0.37;87.09;100636.53;4475760;31;20131;-71
2022/01/13 11:18:52;;;;;;;41.50;13.73;;;;;;;0.53;87.37;100637.97;4483806;31;20081;-71
2022/01/13 11:21:19;;;;;;;33.85;13.48;;;;;;;0.56;86.94;100629.31;4482401;31;20126;-71
2022/01/13 11:23:49;;;;;;;42.72;15.82;;;;;;;0.64;86.15;100635.19;4480404;32;20201;-71
2022/01/13 11:26:18;;;;;;;37.20;14.98;;;;;;;0.58;86.49;100648.19;4487544;31;20081;-70
2022/01/13 11:28:45;;;;;;;39.40;14.60;;;;;;;0.79;85.51;100624.59;4479656;31;20101;-70
2022/01/13 11:31:12;;;;;;;39.47;14.85;;;;;;;1.12;84.65;100606.72;4476208;31;20115;-71
2022/01/13 11:33:39;;;;;;;32.92;13.18;;;;;;;0.96;84.61;100605.34;4467618;32;20101;-70
2022/01/13 11:36:08;;;;;;;31.52;12.13;;;;;;;0.89;84.99;100609.75;4482652;31;20490;-69
2022/01/13 11:38:35;;;;;;;35.65;14.68;;;;;;;0.77;84.65;100613.41;4483444;31;20101;-71
2022/01/13 11:41:09;;;;;;;42.75;15.25;;;;;;;0.58;85.89;100617.25;4477433;31;20458;-70
2022/01/13 11:43:41;;;;;;;31.52;11.20;;;;;;;0.76;85.59;100616.03;4474239;31;20120;-70
2022/01/13 11:46:25;;;;;;;29.05;13.32;;;;;;;0.67;85.67;100619.66;4474859;31;20095;-69
2022/01/13 11:48:54;;;;;;;31.20;12.85;;;;;;;0.74;85.14;100630.69;4477099;31;20149;-71